sensor_id;sensor_type;location;lat;lon;timestamp;temperature;humidity
46720;DHT22;32452;51.382;-0.002;2023-09-12T00:01:49;20.10;95.00
46720;DHT22;32452;51.382;-0.002;2023-09-12T00:04:35;20.10;95.10
46720;DHT22;32452;51.382;-0.002;2023-09-12T00:07:21;20.10;95.20
46720;DHT22;32452;51.382;-0.002;2023-09-12T00:10:06;20.10;95.30
46720;DHT22;32452;51.382;-0.002;2023-09-12T00:12:53;20.00;95.30
46720;DHT22;32452;51.382;-0.002;2023-09-12T00:15:39;20.00;95.40
46720;DHT22;32452;51.382;-0.002;2023-09-12T00:18:24;20.00;95.50
46720;DHT22;32452;51.382;-0.002;2023-09-12T00:21:10;20.00;95.60
46720;DHT22;32452;51.382;-0.002;2023-09-12T00:23:56;20.00;95.60
46720;DHT22;32452;51.382;-0.002;2023-09-12T00:26:42;19.90;95.70
46720;DHT22;32452;51.382;-0.002;2023-09-12T00:29:27;19.90;95.80
46720;DHT22;32452;51.382;-0.002;2023-09-12T00:32:13;19.90;95.80
46720;DHT22;32452;51.382;-0.002;2023-09-12T00:34:59;19.90;95.90
46720;DHT22;32452;51.382;-0.002;2023-09-12T00:37:44;19.80;95.90
46720;DHT22;32452;51.382;-0.002;2023-09-12T00:40:30;19.80;96.00
46720;DHT22;32452;51.382;-0.002;2023-09-12T00:43:16;19.80;96.10
46720;DHT22;32452;51.382;-0.002;2023-09-12T00:46:02;19.80;96.20
46720;DHT22;32452;51.382;-0.002;2023-09-12T00:48:48;19.70;96.20
46720;DHT22;32452;51.382;-0.002;2023-09-12T00:51:35;19.70;96.20
46720;DHT22;32452;51.382;-0.002;2023-09-12T00:54:22;19.70;96.30
46720;DHT22;32452;51.382;-0.002;2023-09-12T00:57:08;19.70;96.40
46720;DHT22;32452;51.382;-0.002;2023-09-12T00:59:54;19.70;96.50
46720;DHT22;32452;51.382;-0.002;2023-09-12T01:02:42;19.70;96.50
46720;DHT22;32452;51.382;-0.002;2023-09-12T01:05:30;19.70;96.60
46720;DHT22;32452;51.382;-0.002;2023-09-12T01:08:15;19.60;96.60
46720;DHT22;32452;51.382;-0.002;2023-09-12T01:11:02;19.60;96.70
46720;DHT22;32452;51.382;-0.002;2023-09-12T01:13:48;19.60;96.80
46720;DHT22;32452;51.382;-0.002;2023-09-12T01:16:34;19.60;96.90
46720;DHT22;32452;51.382;-0.002;2023-09-12T01:19:19;19.60;96.90
46720;DHT22;32452;51.382;-0.002;2023-09-12T01:22:31;19.60;97.00
46720;DHT22;32452;51.382;-0.002;2023-09-12T01:28:30;19.60;97.20
46720;DHT22;32452;51.382;-0.002;2023-09-12T01:31:19;19.60;97.20
46720;DHT22;32452;51.382;-0.002;2023-09-12T01:34:10;19.70;97.30
46720;DHT22;32452;51.382;-0.002;2023-09-12T01:36:55;19.70;97.30
46720;DHT22;32452;51.382;-0.002;2023-09-12T01:39:41;19.70;97.30
46720;DHT22;32452;51.382;-0.002;2023-09-12T01:42:35;19.70;97.30
46720;DHT22;32452;51.382;-0.002;2023-09-12T01:45:21;19.70;97.30
46720;DHT22;32452;51.382;-0.002;2023-09-12T01:48:08;19.70;97.30
46720;DHT22;32452;51.382;-0.002;2023-09-12T01:50:56;19.70;97.40
46720;DHT22;32452;51.382;-0.002;2023-09-12T01:53:43;19.70;97.40
46720;DHT22;32452;51.382;-0.002;2023-09-12T01:56:30;19.70;97.50
46720;DHT22;32452;51.382;-0.002;2023-09-12T01:59:16;19.70;97.50
46720;DHT22;32452;51.382;-0.002;2023-09-12T02:02:02;19.70;97.60
46720;DHT22;32452;51.382;-0.002;2023-09-12T02:04:58;19.70;97.70
46720;DHT22;32452;51.382;-0.002;2023-09-12T02:07:50;19.80;97.70
46720;DHT22;32452;51.382;-0.002;2023-09-12T02:10:35;19.80;97.70
46720;DHT22;32452;51.382;-0.002;2023-09-12T02:13:21;19.80;97.70
46720;DHT22;32452;51.382;-0.002;2023-09-12T02:16:06;19.80;97.80
46720;DHT22;32452;51.382;-0.002;2023-09-12T02:18:52;19.80;97.70
46720;DHT22;32452;51.382;-0.002;2023-09-12T02:21:38;19.70;97.70
46720;DHT22;32452;51.382;-0.002;2023-09-12T02:24:24;19.70;97.70
46720;DHT22;32452;51.382;-0.002;2023-09-12T02:27:10;19.70;97.70
46720;DHT22;32452;51.382;-0.002;2023-09-12T02:29:56;19.70;97.80
46720;DHT22;32452;51.382;-0.002;2023-09-12T02:32:42;19.70;97.80
46720;DHT22;32452;51.382;-0.002;2023-09-12T02:35:29;19.70;97.90
46720;DHT22;32452;51.382;-0.002;2023-09-12T02:38:14;19.60;98.00
46720;DHT22;32452;51.382;-0.002;2023-09-12T02:41:00;19.70;98.10
46720;DHT22;32452;51.382;-0.002;2023-09-12T02:43:47;19.70;98.10
46720;DHT22;32452;51.382;-0.002;2023-09-12T02:46:34;19.70;98.20
46720;DHT22;32452;51.382;-0.002;2023-09-12T02:49:19;19.70;98.30
46720;DHT22;32452;51.382;-0.002;2023-09-12T02:52:05;19.70;98.30
46720;DHT22;32452;51.382;-0.002;2023-09-12T02:54:51;19.70;98.40
46720;DHT22;32452;51.382;-0.002;2023-09-12T02:57:36;19.70;98.40
46720;DHT22;32452;51.382;-0.002;2023-09-12T03:00:22;19.70;98.50
46720;DHT22;32452;51.382;-0.002;2023-09-12T03:03:08;19.70;98.50
46720;DHT22;32452;51.382;-0.002;2023-09-12T03:06:01;19.70;98.50
46720;DHT22;32452;51.382;-0.002;2023-09-12T03:08:50;19.70;98.50
46720;DHT22;32452;51.382;-0.002;2023-09-12T03:11:36;19.70;98.50
46720;DHT22;32452;51.382;-0.002;2023-09-12T03:14:21;19.70;98.60
46720;DHT22;32452;51.382;-0.002;2023-09-12T03:17:07;19.70;98.60
46720;DHT22;32452;51.382;-0.002;2023-09-12T03:19:52;19.70;98.60
46720;DHT22;32452;51.382;-0.002;2023-09-12T03:22:38;19.80;98.70
46720;DHT22;32452;51.382;-0.002;2023-09-12T03:25:24;19.80;98.70
46720;DHT22;32452;51.382;-0.002;2023-09-12T03:28:09;19.80;98.80
46720;DHT22;32452;51.382;-0.002;2023-09-12T03:31:08;19.80;98.80
46720;DHT22;32452;51.382;-0.002;2023-09-12T03:33:54;19.80;98.80
46720;DHT22;32452;51.382;-0.002;2023-09-12T03:36:39;19.80;98.90
46720;DHT22;32452;51.382;-0.002;2023-09-12T03:39:25;19.80;98.90
46720;DHT22;32452;51.382;-0.002;2023-09-12T03:42:10;19.80;98.90
46720;DHT22;32452;51.382;-0.002;2023-09-12T03:44:56;19.80;98.90
46720;DHT22;32452;51.382;-0.002;2023-09-12T03:47:42;19.80;99.00
46720;DHT22;32452;51.382;-0.002;2023-09-12T03:50:32;19.80;99.00
46720;DHT22;32452;51.382;-0.002;2023-09-12T03:53:17;19.80;99.10
46720;DHT22;32452;51.382;-0.002;2023-09-12T03:56:03;19.80;99.20
46720;DHT22;32452;51.382;-0.002;2023-09-12T03:58:49;19.80;99.30
46720;DHT22;32452;51.382;-0.002;2023-09-12T04:01:34;19.70;99.40
46720;DHT22;32452;51.382;-0.002;2023-09-12T04:04:20;19.70;99.40
46720;DHT22;32452;51.382;-0.002;2023-09-12T04:07:06;19.70;99.50
46720;DHT22;32452;51.382;-0.002;2023-09-12T04:09:51;19.70;99.60
46720;DHT22;32452;51.382;-0.002;2023-09-12T04:12:37;19.60;99.60
46720;DHT22;32452;51.382;-0.002;2023-09-12T04:15:23;19.60;99.70
46720;DHT22;32452;51.382;-0.002;2023-09-12T04:18:08;19.60;99.80
46720;DHT22;32452;51.382;-0.002;2023-09-12T04:20:54;19.50;99.80
46720;DHT22;32452;51.382;-0.002;2023-09-12T04:23:42;19.50;99.80
46720;DHT22;32452;51.382;-0.002;2023-09-12T04:26:27;19.50;99.90
46720;DHT22;32452;51.382;-0.002;2023-09-12T04:29:13;19.50;99.90
46720;DHT22;32452;51.382;-0.002;2023-09-12T04:31:58;19.50;99.90
46720;DHT22;32452;51.382;-0.002;2023-09-12T04:34:45;19.50;99.90
46720;DHT22;32452;51.382;-0.002;2023-09-12T04:37:30;19.50;99.90
46720;DHT22;32452;51.382;-0.002;2023-09-12T04:40:16;19.40;99.90
46720;DHT22;32452;51.382;-0.002;2023-09-12T04:43:01;19.40;99.90
46720;DHT22;32452;51.382;-0.002;2023-09-12T04:45:47;19.40;99.90
46720;DHT22;32452;51.382;-0.002;2023-09-12T04:48:33;19.40;99.90
46720;DHT22;32452;51.382;-0.002;2023-09-12T04:51:19;19.40;99.90
46720;DHT22;32452;51.382;-0.002;2023-09-12T04:54:05;19.40;99.90
46720;DHT22;32452;51.382;-0.002;2023-09-12T04:56:51;19.40;99.90
46720;DHT22;32452;51.382;-0.002;2023-09-12T04:59:38;19.40;99.90
46720;DHT22;32452;51.382;-0.002;2023-09-12T05:02:24;19.40;99.90
46720;DHT22;32452;51.382;-0.002;2023-09-12T05:05:12;19.40;99.90
46720;DHT22;32452;51.382;-0.002;2023-09-12T05:07:58;19.40;99.90
46720;DHT22;32452;51.382;-0.002;2023-09-12T05:10:44;19.40;99.90
46720;DHT22;32452;51.382;-0.002;2023-09-12T05:13:30;19.40;99.90
46720;DHT22;32452;51.382;-0.002;2023-09-12T05:16:15;19.40;99.90
46720;DHT22;32452;51.382;-0.002;2023-09-12T05:19:01;19.40;99.90
46720;DHT22;32452;51.382;-0.002;2023-09-12T05:21:47;19.30;99.90
46720;DHT22;32452;51.382;-0.002;2023-09-12T05:24:33;19.30;99.90
46720;DHT22;32452;51.382;-0.002;2023-09-12T05:27:19;19.30;99.90
46720;DHT22;32452;51.382;-0.002;2023-09-12T05:30:05;19.30;99.90
46720;DHT22;32452;51.382;-0.002;2023-09-12T05:32:51;19.30;99.90
46720;DHT22;32452;51.382;-0.002;2023-09-12T05:35:37;19.30;99.90
46720;DHT22;32452;51.382;-0.002;2023-09-12T05:38:22;19.30;99.90
46720;DHT22;32452;51.382;-0.002;2023-09-12T05:41:08;19.30;99.90
46720;DHT22;32452;51.382;-0.002;2023-09-12T05:43:54;19.30;99.90
46720;DHT22;32452;51.382;-0.002;2023-09-12T05:46:40;19.30;99.90
46720;DHT22;32452;51.382;-0.002;2023-09-12T05:49:26;19.30;99.90
46720;DHT22;32452;51.382;-0.002;2023-09-12T05:52:14;19.30;99.90
46720;DHT22;32452;51.382;-0.002;2023-09-12T05:55:00;19.30;99.90
46720;DHT22;32452;51.382;-0.002;2023-09-12T05:57:45;19.30;99.90
46720;DHT22;32452;51.382;-0.002;2023-09-12T06:00:33;19.30;99.90
46720;DHT22;32452;51.382;-0.002;2023-09-12T06:03:18;19.30;99.90
46720;DHT22;32452;51.382;-0.002;2023-09-12T06:06:05;19.40;99.90
46720;DHT22;32452;51.382;-0.002;2023-09-12T06:08:50;19.40;99.90
46720;DHT22;32452;51.382;-0.002;2023-09-12T06:11:38;19.40;99.90
46720;DHT22;32452;51.382;-0.002;2023-09-12T06:14:24;19.40;99.90
46720;DHT22;32452;51.382;-0.002;2023-09-12T06:17:11;19.40;99.90
46720;DHT22;32452;51.382;-0.002;2023-09-12T06:19:57;19.50;99.90
46720;DHT22;32452;51.382;-0.002;2023-09-12T06:22:42;19.50;99.90
46720;DHT22;32452;51.382;-0.002;2023-09-12T06:25:29;19.50;99.90
46720;DHT22;32452;51.382;-0.002;2023-09-12T06:28:27;19.50;99.90
46720;DHT22;32452;51.382;-0.002;2023-09-12T06:31:14;19.60;99.90
46720;DHT22;32452;51.382;-0.002;2023-09-12T06:34:05;19.60;99.90
46720;DHT22;32452;51.382;-0.002;2023-09-12T06:36:50;19.70;99.90
46720;DHT22;32452;51.382;-0.002;2023-09-12T06:39:36;19.80;99.90
46720;DHT22;32452;51.382;-0.002;2023-09-12T06:42:22;19.80;99.90
46720;DHT22;32452;51.382;-0.002;2023-09-12T06:45:08;19.90;99.90
46720;DHT22;32452;51.382;-0.002;2023-09-12T06:47:53;20.00;99.90
46720;DHT22;32452;51.382;-0.002;2023-09-12T06:50:39;19.90;99.90
46720;DHT22;32452;51.382;-0.002;2023-09-12T06:53:33;20.00;99.90
46720;DHT22;32452;51.382;-0.002;2023-09-12T06:56:20;20.10;99.80
46720;DHT22;32452;51.382;-0.002;2023-09-12T06:59:07;20.10;99.80
46720;DHT22;32452;51.382;-0.002;2023-09-12T07:01:53;20.10;99.80
46720;DHT22;32452;51.382;-0.002;2023-09-12T07:04:38;20.10;99.70
46720;DHT22;32452;51.382;-0.002;2023-09-12T07:07:24;20.20;99.60
46720;DHT22;32452;51.382;-0.002;2023-09-12T07:10:10;20.20;99.60
46720;DHT22;32452;51.382;-0.002;2023-09-12T07:13:08;20.20;99.50
46720;DHT22;32452;51.382;-0.002;2023-09-12T07:15:56;20.30;99.50
46720;DHT22;32452;51.382;-0.002;2023-09-12T07:18:42;20.30;99.40
46720;DHT22;32452;51.382;-0.002;2023-09-12T07:21:27;20.30;99.40
46720;DHT22;32452;51.382;-0.002;2023-09-12T07:24:13;20.30;99.40
46720;DHT22;32452;51.382;-0.002;2023-09-12T07:26:59;20.30;99.40
46720;DHT22;32452;51.382;-0.002;2023-09-12T07:29:45;20.30;99.40
46720;DHT22;32452;51.382;-0.002;2023-09-12T07:32:30;20.30;99.40
46720;DHT22;32452;51.382;-0.002;2023-09-12T07:35:16;20.30;99.50
46720;DHT22;32452;51.382;-0.002;2023-09-12T07:38:02;20.30;99.50
46720;DHT22;32452;51.382;-0.002;2023-09-12T07:40:48;20.30;99.50
46720;DHT22;32452;51.382;-0.002;2023-09-12T07:43:34;20.30;99.50
46720;DHT22;32452;51.382;-0.002;2023-09-12T07:46:19;20.30;99.40
46720;DHT22;32452;51.382;-0.002;2023-09-12T07:49:05;20.40;99.40
46720;DHT22;32452;51.382;-0.002;2023-09-12T07:51:51;20.40;99.30
46720;DHT22;32452;51.382;-0.002;2023-09-12T07:54:36;20.40;99.40
46720;DHT22;32452;51.382;-0.002;2023-09-12T07:57:25;20.40;99.30
46720;DHT22;32452;51.382;-0.002;2023-09-12T08:00:11;20.40;99.20
46720;DHT22;32452;51.382;-0.002;2023-09-12T08:02:57;20.40;99.10
46720;DHT22;32452;51.382;-0.002;2023-09-12T08:05:43;20.40;99.10
46720;DHT22;32452;51.382;-0.002;2023-09-12T08:08:29;20.50;99.10
46720;DHT22;32452;51.382;-0.002;2023-09-12T08:11:15;20.50;99.00
46720;DHT22;32452;51.382;-0.002;2023-09-12T08:14:01;20.50;99.00
46720;DHT22;32452;51.382;-0.002;2023-09-12T08:16:47;20.60;99.10
46720;DHT22;32452;51.382;-0.002;2023-09-12T08:19:32;20.60;99.00
46720;DHT22;32452;51.382;-0.002;2023-09-12T08:22:18;20.70;99.00
46720;DHT22;32452;51.382;-0.002;2023-09-12T08:25:05;20.70;99.00
46720;DHT22;32452;51.382;-0.002;2023-09-12T08:27:51;20.80;98.90
46720;DHT22;32452;51.382;-0.002;2023-09-12T08:30:37;20.90;98.80
46720;DHT22;32452;51.382;-0.002;2023-09-12T08:33:22;21.00;98.70
46720;DHT22;32452;51.382;-0.002;2023-09-12T08:36:11;21.00;98.50
46720;DHT22;32452;51.382;-0.002;2023-09-12T08:38:56;21.00;98.40
46720;DHT22;32452;51.382;-0.002;2023-09-12T08:41:42;21.10;98.30
46720;DHT22;32452;51.382;-0.002;2023-09-12T08:44:28;21.10;98.10
46720;DHT22;32452;51.382;-0.002;2023-09-12T08:47:14;21.20;98.40
46720;DHT22;32452;51.382;-0.002;2023-09-12T08:50:02;21.20;98.10
46720;DHT22;32452;51.382;-0.002;2023-09-12T08:52:48;21.20;98.00
46720;DHT22;32452;51.382;-0.002;2023-09-12T08:55:52;21.30;97.90
46720;DHT22;32452;51.382;-0.002;2023-09-12T08:58:38;21.30;97.80
46720;DHT22;32452;51.382;-0.002;2023-09-12T09:01:25;21.30;97.60
46720;DHT22;32452;51.382;-0.002;2023-09-12T09:04:13;21.30;97.50
46720;DHT22;32452;51.382;-0.002;2023-09-12T09:07:00;21.30;97.50
46720;DHT22;32452;51.382;-0.002;2023-09-12T09:09:46;21.20;97.40
46720;DHT22;32452;51.382;-0.002;2023-09-12T09:12:33;21.20;97.70
46720;DHT22;32452;51.382;-0.002;2023-09-12T09:15:22;21.20;97.30
46720;DHT22;32452;51.382;-0.002;2023-09-12T09:18:09;21.20;97.40
46720;DHT22;32452;51.382;-0.002;2023-09-12T09:20:57;21.20;97.30
46720;DHT22;32452;51.382;-0.002;2023-09-12T09:23:46;21.20;97.40
46720;DHT22;32452;51.382;-0.002;2023-09-12T09:26:44;21.20;97.30
46720;DHT22;32452;51.382;-0.002;2023-09-12T09:29:30;21.30;97.20
46720;DHT22;32452;51.382;-0.002;2023-09-12T09:32:19;21.40;97.30
46720;DHT22;32452;51.382;-0.002;2023-09-12T09:35:09;21.60;97.30
46720;DHT22;32452;51.382;-0.002;2023-09-12T09:37:54;21.80;97.10
46720;DHT22;32452;51.382;-0.002;2023-09-12T09:40:40;22.10;96.80
46720;DHT22;32452;51.382;-0.002;2023-09-12T09:43:27;22.40;96.50
46720;DHT22;32452;51.382;-0.002;2023-09-12T09:46:17;22.70;96.10
46720;DHT22;32452;51.382;-0.002;2023-09-12T09:49:03;23.00;95.40
46720;DHT22;32452;51.382;-0.002;2023-09-12T09:51:49;23.30;95.00
46720;DHT22;32452;51.382;-0.002;2023-09-12T09:54:35;23.60;94.60
46720;DHT22;32452;51.382;-0.002;2023-09-12T09:57:28;23.90;94.20
46720;DHT22;32452;51.382;-0.002;2023-09-12T10:00:16;24.30;93.80
46720;DHT22;32452;51.382;-0.002;2023-09-12T10:03:07;24.70;92.80
46720;DHT22;32452;51.382;-0.002;2023-09-12T10:05:59;25.10;91.90
46720;DHT22;32452;51.382;-0.002;2023-09-12T10:08:52;25.60;91.30
46720;DHT22;32452;51.382;-0.002;2023-09-12T10:11:39;26.10;91.60
46720;DHT22;32452;51.382;-0.002;2023-09-12T10:14:30;26.70;90.20
46720;DHT22;32452;51.382;-0.002;2023-09-12T10:17:21;27.60;88.20
46720;DHT22;32452;51.382;-0.002;2023-09-12T10:20:19;28.70;84.00
46720;DHT22;32452;51.382;-0.002;2023-09-12T10:23:34;29.50;78.10
46720;DHT22;32452;51.382;-0.002;2023-09-12T10:26:30;29.50;76.10
46720;DHT22;32452;51.382;-0.002;2023-09-12T10:29:24;29.20;75.00
46720;DHT22;32452;51.382;-0.002;2023-09-12T10:32:14;28.80;73.60
46720;DHT22;32452;51.382;-0.002;2023-09-12T10:35:06;28.30;73.00
46720;DHT22;32452;51.382;-0.002;2023-09-12T10:37:59;27.80;73.00
46720;DHT22;32452;51.382;-0.002;2023-09-12T10:40:47;27.40;73.10
46720;DHT22;32452;51.382;-0.002;2023-09-12T10:43:35;27.10;73.10
46720;DHT22;32452;51.382;-0.002;2023-09-12T10:46:21;26.80;73.10
46720;DHT22;32452;51.382;-0.002;2023-09-12T10:49:09;26.60;73.50
46720;DHT22;32452;51.382;-0.002;2023-09-12T10:51:57;26.40;73.80
46720;DHT22;32452;51.382;-0.002;2023-09-12T10:54:43;26.30;73.90
46720;DHT22;32452;51.382;-0.002;2023-09-12T10:57:29;26.10;73.90
46720;DHT22;32452;51.382;-0.002;2023-09-12T11:00:15;26.00;73.80
46720;DHT22;32452;51.382;-0.002;2023-09-12T11:06:39;25.70;73.80
46720;DHT22;32452;51.382;-0.002;2023-09-12T11:09:34;25.50;74.00
46720;DHT22;32452;51.382;-0.002;2023-09-12T11:12:36;25.40;74.70
46720;DHT22;32452;51.382;-0.002;2023-09-12T11:15:33;25.40;74.60
46720;DHT22;32452;51.382;-0.002;2023-09-12T11:18:22;25.50;74.90
46720;DHT22;32452;51.382;-0.002;2023-09-12T11:21:08;25.60;74.30
46720;DHT22;32452;51.382;-0.002;2023-09-12T11:23:58;25.70;74.20
46720;DHT22;32452;51.382;-0.002;2023-09-12T11:27:00;25.80;74.10
46720;DHT22;32452;51.382;-0.002;2023-09-12T11:29:48;25.80;73.80
46720;DHT22;32452;51.382;-0.002;2023-09-12T11:32:36;25.90;73.70
46720;DHT22;32452;51.382;-0.002;2023-09-12T11:35:26;25.90;73.30
46720;DHT22;32452;51.382;-0.002;2023-09-12T11:38:28;25.90;72.80
46720;DHT22;32452;51.382;-0.002;2023-09-12T11:41:32;25.70;72.30
46720;DHT22;32452;51.382;-0.002;2023-09-12T11:44:21;25.70;72.60
46720;DHT22;32452;51.382;-0.002;2023-09-12T11:47:08;25.60;72.50
46720;DHT22;32452;51.382;-0.002;2023-09-12T11:49:56;25.50;72.00
46720;DHT22;32452;51.382;-0.002;2023-09-12T11:52:42;25.50;71.90
46720;DHT22;32452;51.382;-0.002;2023-09-12T11:55:27;25.50;71.90
46720;DHT22;32452;51.382;-0.002;2023-09-12T11:58:17;25.60;71.60
46720;DHT22;32452;51.382;-0.002;2023-09-12T12:01:02;25.60;71.20
46720;DHT22;32452;51.382;-0.002;2023-09-12T12:03:48;25.50;71.10
46720;DHT22;32452;51.382;-0.002;2023-09-12T12:06:38;25.50;71.30
46720;DHT22;32452;51.382;-0.002;2023-09-12T12:09:24;25.40;71.10
46720;DHT22;32452;51.382;-0.002;2023-09-12T12:12:12;25.30;71.10
46720;DHT22;32452;51.382;-0.002;2023-09-12T12:14:58;25.20;71.30
46720;DHT22;32452;51.382;-0.002;2023-09-12T12:17:43;25.10;71.70
46720;DHT22;32452;51.382;-0.002;2023-09-12T12:20:29;25.00;71.80
46720;DHT22;32452;51.382;-0.002;2023-09-12T12:23:15;25.00;72.20
46720;DHT22;32452;51.382;-0.002;2023-09-12T12:26:08;24.90;73.40
46720;DHT22;32452;51.382;-0.002;2023-09-12T12:28:53;24.90;72.70
46720;DHT22;32452;51.382;-0.002;2023-09-12T12:31:39;24.90;73.20
46720;DHT22;32452;51.382;-0.002;2023-09-12T12:34:26;24.90;73.20
46720;DHT22;32452;51.382;-0.002;2023-09-12T12:37:31;24.90;73.50
46720;DHT22;32452;51.382;-0.002;2023-09-12T12:40:18;24.90;73.40
46720;DHT22;32452;51.382;-0.002;2023-09-12T12:43:05;24.90;73.20
46720;DHT22;32452;51.382;-0.002;2023-09-12T12:45:56;24.90;73.30
46720;DHT22;32452;51.382;-0.002;2023-09-12T12:48:43;24.80;73.20
46720;DHT22;32452;51.382;-0.002;2023-09-12T12:51:31;24.80;73.40
46720;DHT22;32452;51.382;-0.002;2023-09-12T12:54:21;24.80;73.60
46720;DHT22;32452;51.382;-0.002;2023-09-12T12:57:09;24.80;73.80
46720;DHT22;32452;51.382;-0.002;2023-09-12T12:59:58;24.70;73.80
46720;DHT22;32452;51.382;-0.002;2023-09-12T13:02:45;24.70;73.90
46720;DHT22;32452;51.382;-0.002;2023-09-12T13:05:30;24.60;74.10
46720;DHT22;32452;51.382;-0.002;2023-09-12T13:08:17;24.60;74.10
46720;DHT22;32452;51.382;-0.002;2023-09-12T13:11:03;24.60;74.10
46720;DHT22;32452;51.382;-0.002;2023-09-12T13:13:49;24.60;74.10
46720;DHT22;32452;51.382;-0.002;2023-09-12T13:16:35;24.60;74.10
46720;DHT22;32452;51.382;-0.002;2023-09-12T13:19:20;24.60;74.30
46720;DHT22;32452;51.382;-0.002;2023-09-12T13:22:06;24.60;74.30
46720;DHT22;32452;51.382;-0.002;2023-09-12T13:24:52;24.60;74.40
46720;DHT22;32452;51.382;-0.002;2023-09-12T13:27:37;24.60;74.40
46720;DHT22;32452;51.382;-0.002;2023-09-12T13:30:23;24.50;74.50
46720;DHT22;32452;51.382;-0.002;2023-09-12T13:33:09;24.50;74.80
46720;DHT22;32452;51.382;-0.002;2023-09-12T13:35:56;24.50;75.20
46720;DHT22;32452;51.382;-0.002;2023-09-12T13:38:42;24.50;75.30
46720;DHT22;32452;51.382;-0.002;2023-09-12T13:41:28;24.50;75.50
46720;DHT22;32452;51.382;-0.002;2023-09-12T13:44:14;24.40;75.40
46720;DHT22;32452;51.382;-0.002;2023-09-12T13:46:59;24.40;75.60
46720;DHT22;32452;51.382;-0.002;2023-09-12T13:49:45;24.40;75.70
46720;DHT22;32452;51.382;-0.002;2023-09-12T13:52:31;24.40;75.80
46720;DHT22;32452;51.382;-0.002;2023-09-12T13:55:16;24.30;75.90
46720;DHT22;32452;51.382;-0.002;2023-09-12T13:58:22;24.30;75.70
46720;DHT22;32452;51.382;-0.002;2023-09-12T14:01:10;24.30;75.20
46720;DHT22;32452;51.382;-0.002;2023-09-12T14:04:03;24.30;74.80
46720;DHT22;32452;51.382;-0.002;2023-09-12T14:06:49;24.30;74.70
46720;DHT22;32452;51.382;-0.002;2023-09-12T14:09:36;24.20;74.60
46720;DHT22;32452;51.382;-0.002;2023-09-12T14:12:23;24.20;74.70
46720;DHT22;32452;51.382;-0.002;2023-09-12T14:15:13;24.10;74.90
46720;DHT22;32452;51.382;-0.002;2023-09-12T14:18:02;24.10;75.20
46720;DHT22;32452;51.382;-0.002;2023-09-12T14:20:48;24.10;75.50
46720;DHT22;32452;51.382;-0.002;2023-09-12T14:23:37;24.00;75.50
46720;DHT22;32452;51.382;-0.002;2023-09-12T14:26:23;24.00;75.30
46720;DHT22;32452;51.382;-0.002;2023-09-12T14:29:10;24.10;75.20
46720;DHT22;32452;51.382;-0.002;2023-09-12T14:31:56;24.10;74.60
46720;DHT22;32452;51.382;-0.002;2023-09-12T14:34:45;24.10;74.60
46720;DHT22;32452;51.382;-0.002;2023-09-12T14:37:31;24.20;74.60
46720;DHT22;32452;51.382;-0.002;2023-09-12T14:40:16;24.20;74.10
46720;DHT22;32452;51.382;-0.002;2023-09-12T14:43:02;24.20;73.80
46720;DHT22;32452;51.382;-0.002;2023-09-12T14:45:48;24.30;73.70
46720;DHT22;32452;51.382;-0.002;2023-09-12T14:48:34;24.20;73.10
46720;DHT22;32452;51.382;-0.002;2023-09-12T14:51:24;24.20;72.90
46720;DHT22;32452;51.382;-0.002;2023-09-12T14:54:18;24.10;72.80
46720;DHT22;32452;51.382;-0.002;2023-09-12T14:57:03;24.10;72.90
46720;DHT22;32452;51.382;-0.002;2023-09-12T14:59:50;24.00;73.30
46720;DHT22;32452;51.382;-0.002;2023-09-12T15:02:35;24.10;73.70
46720;DHT22;32452;51.382;-0.002;2023-09-12T15:05:21;24.10;74.10
46720;DHT22;32452;51.382;-0.002;2023-09-12T15:08:07;24.00;74.10
46720;DHT22;32452;51.382;-0.002;2023-09-12T15:10:53;24.00;74.40
46720;DHT22;32452;51.382;-0.002;2023-09-12T15:13:38;24.10;74.70
46720;DHT22;32452;51.382;-0.002;2023-09-12T15:16:27;24.10;74.80
46720;DHT22;32452;51.382;-0.002;2023-09-12T15:19:16;24.10;74.80
46720;DHT22;32452;51.382;-0.002;2023-09-12T15:22:02;24.00;75.00
46720;DHT22;32452;51.382;-0.002;2023-09-12T15:24:47;24.00;75.20
46720;DHT22;32452;51.382;-0.002;2023-09-12T15:27:33;23.90;75.50
46720;DHT22;32452;51.382;-0.002;2023-09-12T15:30:22;23.80;75.70
46720;DHT22;32452;51.382;-0.002;2023-09-12T15:33:07;23.70;75.80
46720;DHT22;32452;51.382;-0.002;2023-09-12T15:35:53;23.70;76.30
46720;DHT22;32452;51.382;-0.002;2023-09-12T15:38:39;23.70;76.70
46720;DHT22;32452;51.382;-0.002;2023-09-12T15:41:24;23.60;77.00
46720;DHT22;32452;51.382;-0.002;2023-09-12T15:44:10;23.50;77.50
46720;DHT22;32452;51.382;-0.002;2023-09-12T15:47:00;23.50;77.70
46720;DHT22;32452;51.382;-0.002;2023-09-12T15:50:02;23.50;78.20
46720;DHT22;32452;51.382;-0.002;2023-09-12T15:52:48;23.50;78.50
46720;DHT22;32452;51.382;-0.002;2023-09-12T15:55:35;23.50;78.80
46720;DHT22;32452;51.382;-0.002;2023-09-12T15:58:20;23.50;78.90
46720;DHT22;32452;51.382;-0.002;2023-09-12T16:01:06;23.40;79.30
46720;DHT22;32452;51.382;-0.002;2023-09-12T16:03:52;23.40;79.60
46720;DHT22;32452;51.382;-0.002;2023-09-12T16:06:39;23.40;80.00
46720;DHT22;32452;51.382;-0.002;2023-09-12T16:09:24;23.30;80.20
46720;DHT22;32452;51.382;-0.002;2023-09-12T16:12:10;23.30;80.10
46720;DHT22;32452;51.382;-0.002;2023-09-12T16:14:56;23.30;79.70
46720;DHT22;32452;51.382;-0.002;2023-09-12T16:17:42;23.30;79.50
46720;DHT22;32452;51.382;-0.002;2023-09-12T16:20:28;23.30;79.40
46720;DHT22;32452;51.382;-0.002;2023-09-12T16:23:14;23.20;79.60
46720;DHT22;32452;51.382;-0.002;2023-09-12T16:26:00;23.20;79.70
46720;DHT22;32452;51.382;-0.002;2023-09-12T16:28:46;23.10;79.70
46720;DHT22;32452;51.382;-0.002;2023-09-12T16:31:31;23.10;80.00
46720;DHT22;32452;51.382;-0.002;2023-09-12T16:34:17;23.10;80.20
46720;DHT22;32452;51.382;-0.002;2023-09-12T16:37:03;23.10;80.40
46720;DHT22;32452;51.382;-0.002;2023-09-12T16:39:49;23.00;80.60
46720;DHT22;32452;51.382;-0.002;2023-09-12T16:42:34;23.00;80.90
46720;DHT22;32452;51.382;-0.002;2023-09-12T16:45:21;22.90;81.20
46720;DHT22;32452;51.382;-0.002;2023-09-12T16:48:07;22.90;81.40
46720;DHT22;32452;51.382;-0.002;2023-09-12T16:50:52;22.80;81.60
46720;DHT22;32452;51.382;-0.002;2023-09-12T16:53:38;22.80;81.70
46720;DHT22;32452;51.382;-0.002;2023-09-12T16:56:24;22.80;81.30
46720;DHT22;32452;51.382;-0.002;2023-09-12T16:59:09;22.70;81.00
46720;DHT22;32452;51.382;-0.002;2023-09-12T17:01:55;22.60;81.00
46720;DHT22;32452;51.382;-0.002;2023-09-12T17:04:41;22.60;81.30
46720;DHT22;32452;51.382;-0.002;2023-09-12T17:07:29;22.50;81.40
46720;DHT22;32452;51.382;-0.002;2023-09-12T17:10:15;22.40;81.70
46720;DHT22;32452;51.382;-0.002;2023-09-12T17:13:00;22.40;82.20
46720;DHT22;32452;51.382;-0.002;2023-09-12T17:15:46;22.30;83.00
46720;DHT22;32452;51.382;-0.002;2023-09-12T17:18:32;22.30;83.80
46720;DHT22;32452;51.382;-0.002;2023-09-12T17:21:19;22.20;84.60
46720;DHT22;32452;51.382;-0.002;2023-09-12T17:24:05;22.20;85.30
46720;DHT22;32452;51.382;-0.002;2023-09-12T17:26:51;22.10;86.00